Time;durP1;ratioP1;P1;durP2;ratioP2;P2;SDS_P1;SDS_P2;PMS_P1;PMS_P2;Temp;Humidity;BMP_temperature;BMP_pressure;BME280_temperature;BME280_humidity;BME280_pressure;Samples;Min_cycle;Max_cycle;Signal;HPM_P1;HPM_P2
2024/03/05 00:01:02;;;;;;;7.43;4.40;;;;;;;5.06;100.00;91973.22;4761308;30;20086;-80
2024/03/05 00:03:28;;;;;;;7.00;4.38;;;;;;;5.05;100.00;91976.09;4755294;30;20444;-80
2024/03/05 00:05:57;;;;;;;5.80;3.30;;;;;;;5.12;100.00;91974.78;4754908;30;20544;-81
2024/03/05 00:08:22;;;;;;;7.70;3.70;;;;;;;5.13;100.00;91985.91;4754785;30;20056;-80
2024/03/05 00:10:48;;;;;;;10.23;4.00;;;;;;;5.07;100.00;91979.97;4754305;30;20108;-80
2024/03/05 00:13:14;;;;;;;6.57;3.40;;;;;;;5.05;100.00;91986.47;4749096;30;20036;-80
2024/03/05 00:15:39;;;;;;;8.30;3.47;;;;;;;4.99;100.00;91985.69;4758103;30;20032;-80
2024/03/05 00:18:05;;;;;;;8.57;3.70;;;;;;;4.96;100.00;91992.19;4769624;30;20127;-81
2024/03/05 00:20:34;;;;;;;8.15;3.80;;;;;;;4.93;100.00;91990.13;4748666;30;20029;-80
2024/03/05 00:23:00;;;;;;;8.13;3.30;;;;;;;4.91;100.00;91994.81;4765599;30;20501;-80
2024/03/05 00:25:26;;;;;;;8.90;3.10;;;;;;;4.86;100.00;91992.22;4760201;30;20031;-81
2024/03/05 00:27:52;;;;;;;3.90;2.60;;;;;;;4.81;100.00;91994.81;4763077;30;20103;-80
2024/03/05 00:30:18;;;;;;;6.03;3.03;;;;;;;4.80;100.00;91995.88;4769377;30;20130;-80
2024/03/05 00:32:45;;;;;;;4.88;2.90;;;;;;;4.79;100.00;92000.25;4764362;30;20048;-81
2024/03/05 00:35:11;;;;;;;4.47;2.60;;;;;;;4.77;100.00;91996.38;4767234;30;20034;-80
2024/03/05 00:37:37;;;;;;;6.30;3.10;;;;;;;4.75;100.00;91995.84;4767550;30;20411;-80
2024/03/05 00:40:08;;;;;;;10.50;3.33;;;;;;;4.71;100.00;91990.44;4761981;30;20040;-80
2024/03/05 00:42:37;;;;;;;9.77;2.97;;;;;;;4.59;100.00;91987.31;4745209;30;20044;-81
2024/03/05 00:45:10;;;;;;;6.65;2.95;;;;;;;4.57;100.00;91990.19;4753284;30;20104;-80
2024/03/05 00:47:36;;;;;;;5.70;2.67;;;;;;;4.55;100.00;91988.91;4746695;30;20517;-80
2024/03/05 00:50:03;;;;;;;4.95;2.65;;;;;;;4.49;100.00;91987.34;4757789;30;20039;-80
2024/03/05 00:52:30;;;;;;;9.05;3.55;;;;;;;4.45;100.00;91989.66;4760322;30;20063;-81
2024/03/05 00:54:57;;;;;;;6.93;2.80;;;;;;;4.44;100.00;91995.13;4766315;30;20043;-80
2024/03/05 00:57:23;;;;;;;12.40;3.00;;;;;;;4.44;100.00;91995.13;4762680;30;20068;-81
2024/03/05 00:59:48;;;;;;;10.48;3.30;;;;;;;4.42;100.00;91997.22;4751407;30;20048;-80
2024/03/05 01:02:15;;;;;;;4.43;2.60;;;;;;;4.41;100.00;91995.63;4759452;30;20054;-80
2024/03/05 01:04:41;;;;;;;4.88;2.80;;;;;;;4.35;100.00;91990.47;4768463;30;20113;-80
2024/03/05 01:07:07;;;;;;;9.50;2.90;;;;;;;4.33;100.00;91995.13;4761522;30;20524;-80
2024/03/05 01:09:32;;;;;;;6.20;2.78;;;;;;;4.28;100.00;91989.94;4761517;30;20040;-80
2024/03/05 01:11:58;;;;;;;5.43;2.88;;;;;;;4.26;100.00;91986.84;4757592;30;20047;-80
2024/03/05 01:14:24;;;;;;;6.75;2.78;;;;;;;4.22;100.00;91983.19;4767570;30;20044;-81
2024/03/05 01:16:50;;;;;;;9.48;2.92;;;;;;;4.20;100.00;91982.69;4756506;30;20047;-80
2024/03/05 01:19:15;;;;;;;6.25;2.92;;;;;;;4.16;100.00;91981.63;4771919;30;20036;-81
2024/03/05 01:21:41;;;;;;;6.72;3.00;;;;;;;4.16;100.00;91979.03;4746245;30;20053;-80
2024/03/05 01:24:10;;;;;;;7.70;3.17;;;;;;;4.13;100.00;91974.41;4754051;30;20115;-80
2024/03/05 01:26:37;;;;;;;8.55;3.05;;;;;;;4.10;100.00;91983.47;4752476;30;20068;-80
2024/03/05 01:29:04;;;;;;;7.00;3.00;;;;;;;4.10;100.00;91982.69;4760926;30;20030;-80
2024/03/05 01:31:30;;;;;;;6.22;3.10;;;;;;;4.09;100.00;91988.88;4748964;30;20045;-80
2024/03/05 01:33:55;;;;;;;6.32;3.60;;;;;;;4.10;100.00;91982.69;4761988;30;20280;-81
2024/03/05 01:36:21;;;;;;;6.88;3.55;;;;;;;4.11;100.00;91992.00;4754882;30;20048;-81
2024/03/05 01:38:46;;;;;;;6.93;3.30;;;;;;;4.10;100.00;91988.63;4748778;30;20557;-80
2024/03/05 01:41:13;;;;;;;5.90;3.20;;;;;;;4.10;100.00;91986.06;4758419;30;20051;-80
2024/03/05 01:43:40;;;;;;;7.70;4.43;;;;;;;4.08;100.00;91982.94;4745594;30;20182;-81
2024/03/05 01:46:06;;;;;;;6.93;3.70;;;;;;;4.11;100.00;91981.66;4753526;30;20036;-81
2024/03/05 01:48:32;;;;;;;5.70;3.42;;;;;;;4.11;100.00;91984.22;4754264;30;20040;-80
2024/03/05 01:50:59;;;;;;;7.82;3.55;;;;;;;4.10;100.00;91980.09;4765749;30;20064;-80
2024/03/05 01:53:25;;;;;;;13.55;3.85;;;;;;;4.08;100.00;91984.75;4762007;30;20035;-80
2024/03/05 01:55:53;;;;;;;6.47;3.83;;;;;;;4.06;100.00;91979.06;4769639;30;20040;-80
2024/03/05 01:58:19;;;;;;;6.97;3.90;;;;;;;4.02;100.00;91972.84;4756714;30;20036;-80
2024/03/05 02:00:46;;;;;;;7.40;3.70;;;;;;;4.05;100.00;91977.47;4772025;30;20053;-80
2024/03/05 02:03:12;;;;;;;8.23;3.33;;;;;;;4.02;100.00;91978.00;4755039;30;20040;-80
2024/03/05 02:05:44;;;;;;;6.82;3.67;;;;;;;3.99;100.00;91978.53;4761635;30;20173;-81
2024/03/05 02:08:11;;;;;;;;;;;;;;;4.02;100.00;91978.00;4748608;30;20051;-80
2024/03/05 02:10:37;;;;;;;9.50;4.03;;;;;;;4.01;100.00;91977.25;4760217;30;19929;-80
2024/03/05 02:13:03;;;;;;;6.43;3.97;;;;;;;4.01;100.00;91976.44;4745691;30;20048;-80
2024/03/05 02:15:29;;;;;;;8.27;4.10;;;;;;;4.02;100.00;91978.78;4746892;30;20039;-81
2024/03/05 02:17:55;;;;;;;8.95;3.58;;;;;;;4.02;100.00;91972.84;4760805;30;20560;-80
2024/03/05 02:20:21;;;;;;;6.18;3.90;;;;;;;4.02;100.00;91967.66;4761041;30;20517;-80
2024/03/05 02:22:46;;;;;;;9.23;4.60;;;;;;;4.01;100.00;91960.91;4753356;30;20078;-80
2024/03/05 02:25:12;;;;;;;10.55;4.80;;;;;;;4.02;100.00;91962.47;4753665;30;20075;-80
2024/03/05 02:27:38;;;;;;;10.65;5.05;;;;;;;4.01;100.00;91956.53;4757449;30;20051;-80
2024/03/05 02:30:10;;;;;;;7.75;4.13;;;;;;;3.99;100.00;91958.59;4762119;30;20032;-81
2024/03/05 02:32:40;;;;;;;7.88;3.88;;;;;;;4.03;100.00;91958.84;4766749;30;20044;-80
2024/03/05 02:35:10;;;;;;;4.57;3.03;;;;;;;4.02;100.00;91959.88;4755844;30;20044;-80
2024/03/05 02:37:40;;;;;;;8.32;2.45;;;;;;;4.02;100.00;91958.06;4754358;30;20067;-80
2024/03/05 02:40:13;;;;;;;3.10;1.90;;;;;;;4.00;100.00;91960.13;4749403;30;20064;-80
2024/03/05 02:42:40;;;;;;;6.65;2.80;;;;;;;3.97;100.00;91958.06;4761122;30;20045;-80
2024/03/05 02:45:07;;;;;;;4.65;1.80;;;;;;;3.87;100.00;91953.66;4762659;30;20047;-80
2024/03/05 02:47:36;;;;;;;7.20;1.90;;;;;;;3.82;100.00;91956.22;4758564;30;20584;-80
2024/03/05 02:50:03;;;;;;;5.88;1.95;;;;;;;3.84;100.00;91958.56;4759345;30;20040;-80
2024/03/05 02:52:30;;;;;;;4.90;1.85;;;;;;;3.81;100.00;91954.69;4755263;30;20076;-80
2024/03/05 02:54:57;;;;;;;5.68;1.70;;;;;;;3.79;100.00;91956.75;4763613;30;20032;-81
2024/03/05 02:57:24;;;;;;;10.15;1.90;;;;;;;3.75;100.00;91948.72;4757971;30;20048;-81
2024/03/05 02:59:51;;;;;;;3.38;1.50;;;;;;;3.71;100.00;91952.84;4754629;30;20071;-80
2024/03/05 03:02:18;;;;;;;5.43;1.85;;;;;;;3.65;100.00;91953.13;4755174;30;20268;-80
2024/03/05 03:04:44;;;;;;;3.53;1.80;;;;;;;3.64;100.00;91954.13;4760241;30;20051;-80
2024/03/05 03:07:10;;;;;;;5.43;1.90;;;;;;;3.63;100.00;91963.72;4766523;30;20049;-80
2024/03/05 03:09:35;;;;;;;8.20;1.90;;;;;;;3.60;100.00;91958.25;4769931;30;20062;-80
2024/03/05 03:12:02;;;;;;;5.72;1.63;;;;;;;3.59;100.00;91959.31;4756574;30;20044;-80
2024/03/05 03:14:28;;;;;;;4.25;1.77;;;;;;;3.57;100.00;91951.03;4755573;30;20033;-80
2024/03/05 03:16:55;;;;;;;5.65;2.20;;;;;;;3.55;100.00;91944.28;4758373;30;20139;-80
2024/03/05 03:19:22;;;;;;;4.53;1.50;;;;;;;3.55;100.00;91952.03;4754412;30;20101;-80
2024/03/05 03:21:49;;;;;;;5.45;1.80;;;;;;;3.52;100.00;91938.84;4753956;30;20063;-80
2024/03/05 03:24:14;;;;;;;3.35;1.80;;;;;;;3.51;100.00;91945.84;4759984;30;20525;-80
2024/03/05 03:26:40;;;;;;;5.68;1.52;;;;;;;3.56;100.00;91942.47;4769196;30;20043;-80
2024/03/05 03:29:11;;;;;;;7.03;1.70;;;;;;;3.65;100.00;91942.75;4753055;30;20066;-80
2024/03/05 03:31:45;;;;;;;3.58;1.50;;;;;;;3.74;100.00;91947.16;4760463;30;20077;-80
2024/03/05 03:34:12;;;;;;;4.15;1.70;;;;;;;3.87;100.00;91945.91;4760627;30;20509;-80
2024/03/05 03:36:37;;;;;;;8.32;1.95;;;;;;;3.98;100.00;91951.84;4754080;30;20261;-80
2024/03/05 03:39:03;;;;;;;6.65;1.83;;;;;;;4.02;100.00;91955.47;4753663;30;20048;-82
2024/03/05 03:41:28;;;;;;;4.90;1.42;;;;;;;3.99;100.00;91955.22;4754776;30;20052;-80
2024/03/05 03:43:54;;;;;;;4.57;1.50;;;;;;;3.97;100.00;91951.06;4747505;30;20064;-80
2024/03/05 03:46:20;;;;;;;6.05;1.58;;;;;;;3.94;100.00;91949.00;4759494;30;20047;-80
2024/03/05 03:48:45;;;;;;;3.95;2.10;;;;;;;3.96;100.00;91952.13;4763355;30;20504;-80
2024/03/05 03:51:12;;;;;;;5.97;1.70;;;;;;;3.99;100.00;91957.81;4752611;30;20135;-80
2024/03/05 03:53:42;;;;;;;3.15;1.60;;;;;;;3.93;100.00;91950.03;4750674;30;20044;-80
2024/03/05 03:56:09;;;;;;;4.53;1.70;;;;;;;3.97;100.00;91961.44;4748571;30;20059;-80
2024/03/05 03:58:35;;;;;;;4.15;1.48;;;;;;;3.99;100.00;91957.81;4758513;30;20122;-80
2024/03/05 04:01:02;;;;;;;6.43;1.70;;;;;;;4.01;100.00;91956.53;4758701;30;20040;-80
2024/03/05 04:03:29;;;;;;;3.88;1.65;;;;;;;4.01;100.00;91963.50;4762961;30;20103;-79
2024/03/05 04:05:55;;;;;;;3.75;1.60;;;;;;;4.00;100.00;91956.78;4760577;30;20465;-80
2024/03/05 04:08:21;;;;;;;7.88;1.80;;;;;;;4.01;100.00;91953.94;4758416;30;20036;-80
2024/03/05 04:10:48;;;;;;;4.05;1.55;;;;;;;4.02;100.00;91958.06;4753902;30;20036;-81
2024/03/05 04:13:14;;;;;;;6.20;1.70;;;;;;;4.02;100.00;91958.06;4759784;30;20028;-81
2024/03/05 04:15:39;;;;;;;4.45;1.90;;;;;;;4.03;100.00;91966.59;4755762;30;20071;-80
2024/03/05 04:18:05;;;;;;;5.72;1.35;;;;;;;4.02;100.00;91957.28;4759366;30;20036;-80
2024/03/05 04:20:30;;;;;;;3.53;1.63;;;;;;;4.01;100.00;91951.34;4755027;30;20111;-80
2024/03/05 04:22:56;;;;;;;9.60;2.22;;;;;;;4.02;100.00;91944.34;4767771;30;20031;-80
2024/03/05 04:25:25;;;;;;;5.30;1.60;;;;;;;4.03;100.00;91948.47;4752620;30;20035;-81
2024/03/05 04:27:50;;;;;;;4.53;1.70;;;;;;;4.06;100.00;91947.97;4751271;30;20036;-80
2024/03/05 04:30:16;;;;;;;7.03;2.17;;;;;;;4.07;100.00;91941.75;4757964;30;20557;-80
2024/03/05 04:32:51;;;;;;;7.88;1.60;;;;;;;4.07;100.00;91944.34;4764837;30;20400;-80
2024/03/05 04:35:16;;;;;;;4.93;1.70;;;;;;;4.12;100.00;91944.31;4760714;30;20067;-80
2024/03/05 04:37:42;;;;;;;7.25;1.70;;;;;;;4.11;100.00;91940.97;4754345;30;20507;-80
2024/03/05 04:40:12;;;;;;;5.47;1.70;;;;;;;4.14;100.00;91950.03;4756420;30;20048;-80
2024/03/05 04:42:41;;;;;;;6.05;1.52;;;;;;;4.15;100.00;91956.78;4751630;30;20044;-80
2024/03/05 04:45:07;;;;;;;9.77;2.13;;;;;;;4.15;100.00;91954.19;4748120;30;20051;-80
2024/03/05 04:47:33;;;;;;;3.70;1.70;;;;;;;4.18;100.00;91953.66;4752573;30;20056;-80
2024/03/05 04:50:00;;;;;;;6.15;1.98;;;;;;;4.19;100.00;91952.63;4754172;30;20158;-80
2024/03/05 04:52:27;;;;;;;3.80;1.65;;;;;;;4.21;100.00;91950.56;4754803;30;20122;-81
2024/03/05 04:54:54;;;;;;;2.92;1.60;;;;;;;4.24;100.00;91955.22;4755115;30;20502;-81
2024/03/05 04:57:20;;;;;;;5.97;1.80;;;;;;;4.27;100.00;91951.34;4757815;30;20074;-80
2024/03/05 04:59:46;;;;;;;4.90;1.85;;;;;;;4.30;100.00;91954.19;4751510;30;20060;-80
2024/03/05 05:02:11;;;;;;;4.63;1.80;;;;;;;4.32;100.00;91956.50;4751520;30;20127;-80
2024/03/05 05:04:41;;;;;;;4.95;1.50;;;;;;;4.31;100.00;91955.72;4753798;30;20048;-80
2024/03/05 05:07:07;;;;;;;4.43;1.65;;;;;;;4.39;100.00;91967.41;4746671;30;20056;-80
2024/03/05 05:09:36;;;;;;;3.03;1.83;;;;;;;4.41;100.00;91957.53;4750161;30;20051;-80
2024/03/05 05:12:03;;;;;;;5.20;1.70;;;;;;;4.43;100.00;91957.28;4750386;30;20114;-80
2024/03/05 05:14:31;;;;;;;6.75;2.03;;;;;;;4.44;100.00;91951.06;4760198;30;20032;-80
2024/03/05 05:16:59;;;;;;;2.67;1.42;;;;;;;4.46;100.00;91956.75;4753759;30;20048;-80
2024/03/05 05:19:25;;;;;;;5.43;1.60;;;;;;;4.45;100.00;91947.44;4747643;30;20066;-80
2024/03/05 05:21:51;;;;;;;3.47;1.60;;;;;;;4.47;100.00;91946.13;4746342;30;20032;-79
2024/03/05 05:24:17;;;;;;;2.72;1.50;;;;;;;4.48;100.00;91945.09;4746654;30;20032;-79
2024/03/05 05:26:42;;;;;;;4.57;1.77;;;;;;;4.49;100.00;91951.06;4754950;30;20068;-79
2024/03/05 05:29:09;;;;;;;3.38;1.60;;;;;;;4.45;100.00;91939.66;4768640;30;20044;-80
2024/03/05 05:31:36;;;;;;;4.78;1.60;;;;;;;4.50;100.00;91940.44;4746497;30;20037;-80
2024/03/05 05:34:03;;;;;;;7.30;1.83;;;;;;;4.50;100.00;91939.63;4754037;30;20039;-81
2024/03/05 05:36:29;;;;;;;3.03;1.67;;;;;;;4.55;100.00;91939.66;4738985;30;20111;-81
2024/03/05 05:38:55;;;;;;;3.53;1.65;;;;;;;4.55;100.00;91943.03;4764620;30;20055;-82
2024/03/05 05:41:21;;;;;;;5.85;1.83;;;;;;;4.56;100.00;91941.97;4740651;30;20111;-79
2024/03/05 05:43:48;;;;;;;3.40;1.58;;;;;;;4.56;100.00;91936.00;4748936;30;20063;-79
2024/03/05 05:46:14;;;;;;;6.78;1.80;;;;;;;4.58;100.00;91939.88;4749814;30;20124;-79
2024/03/05 05:48:43;;;;;;;5.35;1.80;;;;;;;4.58;100.00;91939.13;4751613;30;20033;-80
2024/03/05 05:51:13;;;;;;;7.03;1.40;;;;;;;4.62;100.00;91940.16;4746378;30;20044;-78
2024/03/05 05:53:40;;;;;;;3.35;1.85;;;;;;;4.63;100.00;91931.31;4742153;30;20048;-80
2024/03/05 05:56:06;;;;;;;3.80;1.70;;;;;;;4.64;100.00;91932.09;4765826;30;20036;-79
2024/03/05 05:58:33;;;;;;;3.42;1.60;;;;;;;4.68;100.00;91933.13;4740519;30;20529;-78
2024/03/05 06:01:05;;;;;;;4.65;1.90;;;;;;;4.70;100.00;91931.06;4743389;30;20083;-79
2024/03/05 06:03:35;;;;;;;;;;;;;;;4.72;100.00;91934.16;4743516;30;20070;-78
2024/03/05 06:06:01;;;;;;;5.90;1.73;;;;;;;4.76;100.00;91935.19;4748747;30;19944;-81
2024/03/05 06:08:27;;;;;;;6.13;2.53;;;;;;;4.79;100.00;91934.66;4749261;30;20177;-80
2024/03/05 06:10:53;;;;;;;6.22;1.75;;;;;;;4.96;100.00;91934.38;4747323;30;20122;-79
2024/03/05 06:13:20;;;;;;;2.78;1.60;;;;;;;5.57;100.00;91934.09;4742637;30;20405;-79
2024/03/05 06:15:47;;;;;;;4.60;1.75;;;;;;;6.20;100.00;91937.88;4745303;30;20052;-79
2024/03/05 06:18:12;;;;;;;7.82;2.25;;;;;;;6.84;100.00;91941.94;4746068;30;20036;-79
2024/03/05 06:20:38;;;;;;;5.40;2.10;;;;;;;7.15;100.00;91936.44;4745824;30;20050;-79
2024/03/05 06:23:04;;;;;;;5.38;2.00;;;;;;;7.18;100.00;91935.88;4760459;30;20042;-79
2024/03/05 06:25:30;;;;;;;2.75;1.58;;;;;;;7.04;100.00;91940.97;4759891;30;20110;-79
2024/03/05 06:27:56;;;;;;;6.97;2.00;;;;;;;7.00;100.00;91947.00;4758759;30;20097;-79
2024/03/05 06:30:22;;;;;;;6.93;2.00;;;;;;;6.86;100.00;91947.66;4760611;30;20052;-79
2024/03/05 06:32:49;;;;;;;3.08;1.67;;;;;;;6.63;100.00;91949.19;4764689;30;20451;-76
2024/03/05 06:35:22;;;;;;;4.07;1.52;;;;;;;6.50;100.00;91954.25;4763161;30;20070;-79
2024/03/05 06:37:48;;;;;;;5.70;2.20;;;;;;;6.38;100.00;91958.00;4758971;30;20040;-79
2024/03/05 06:40:19;;;;;;;3.63;1.90;;;;;;;6.30;100.00;91955.19;4756358;30;20032;-77
2024/03/05 06:42:52;;;;;;;5.15;1.90;;;;;;;6.22;100.00;91953.97;4754231;30;20040;-79
2024/03/05 06:45:26;;;;;;;5.93;1.88;;;;;;;6.16;100.00;91955.03;4762661;30;20060;-79
2024/03/05 06:48:00;;;;;;;3.00;1.70;;;;;;;6.11;100.00;91962.88;4752184;30;20046;-79
2024/03/05 06:50:38;;;;;;;7.55;1.92;;;;;;;6.05;100.00;91955.09;4753610;30;20127;-79
2024/03/05 06:58:35;;;;;;;4.90;1.88;;;;;;;6.01;100.00;91961.09;4770888;30;20048;-79
2024/03/05 07:01:09;;;;;;;4.38;1.98;;;;;;;5.99;100.00;91951.00;4760161;30;20052;-79
2024/03/05 07:03:36;;;;;;;5.47;2.00;;;;;;;6.06;100.00;91955.91;4751022;30;20490;-79
2024/03/05 07:06:09;;;;;;;12.18;4.90;;;;;;;6.05;100.00;91962.91;4762754;30;20471;-79
2024/03/05 07:08:38;;;;;;;17.45;5.63;;;;;;;6.05;100.00;91960.28;4755787;30;20059;-79
2024/03/05 07:11:05;;;;;;;8.25;3.67;;;;;;;6.09;100.00;91967.56;4756863;30;20297;-79
2024/03/05 07:13:38;;;;;;;6.32;3.10;;;;;;;6.09;100.00;91970.94;4750857;30;20040;-79
2024/03/05 07:16:04;;;;;;;8.02;2.78;;;;;;;6.16;100.00;91962.84;4757880;30;20055;-79
2024/03/05 07:18:30;;;;;;;6.88;4.20;;;;;;;6.23;100.00;91968.50;4764301;30;20053;-79
2024/03/05 07:20:56;;;;;;;12.02;5.40;;;;;;;6.25;100.00;91963.81;4765414;30;20506;-79
2024/03/05 07:23:22;;;;;;;23.77;15.30;;;;;;;6.25;100.00;91971.59;4773145;30;20035;-79
2024/03/05 07:25:47;;;;;;;25.27;17.00;;;;;;;6.24;100.00;91970.84;4763209;30;20118;-79
2024/03/05 07:28:15;;;;;;;21.48;14.05;;;;;;;6.27;100.00;91972.13;4753844;30;20063;-79
2024/03/05 07:30:42;;;;;;;21.08;12.80;;;;;;;6.28;100.00;91978.84;4753515;30;20099;-79
2024/03/05 07:33:10;;;;;;;10.88;6.28;;;;;;;6.32;100.00;91982.47;4748164;30;20071;-79
2024/03/05 07:35:36;;;;;;;11.82;5.10;;;;;;;6.33;100.00;91981.44;4762172;30;20108;-79
2024/03/05 07:38:02;;;;;;;9.75;3.28;;;;;;;6.38;100.00;91981.38;4761273;30;20460;-79
2024/03/05 07:40:29;;;;;;;5.05;2.83;;;;;;;6.41;100.00;91982.66;4760824;30;20509;-79
2024/03/05 07:42:54;;;;;;;8.85;2.92;;;;;;;6.44;100.00;91984.72;4751555;30;20410;-79
2024/03/05 07:45:22;;;;;;;5.30;3.00;;;;;;;6.43;100.00;91981.34;4757245;30;20040;-79
2024/03/05 07:47:49;;;;;;;6.38;2.65;;;;;;;6.48;100.00;91983.13;4770708;30;20042;-79
2024/03/05 07:50:16;;;;;;;5.50;2.38;;;;;;;6.50;100.00;91985.47;4762156;30;20066;-79
2024/03/05 07:52:46;;;;;;;4.90;2.42;;;;;;;6.53;100.00;91982.31;4763450;30;20046;-79
2024/03/05 07:55:21;;;;;;;6.95;2.88;;;;;;;6.51;100.00;91976.59;4765493;30;20042;-79
2024/03/05 07:57:52;;;;;;;6.72;2.70;;;;;;;6.54;100.00;91976.84;4762161;30;20556;-81
2024/03/05 08:00:22;;;;;;;16.20;2.75;;;;;;;6.60;100.00;91980.94;4765569;30;20082;-79
2024/03/05 08:02:55;;;;;;;14.07;3.00;;;;;;;6.62;100.00;91983.25;4754191;30;20066;-79
2024/03/05 08:05:24;;;;;;;;;;;;;;;6.65;100.00;91983.50;4754399;30;20048;-79
2024/03/05 08:07:56;;;;;;;4.35;2.38;;;;;;;6.65;100.00;91983.50;4754074;30;19957;-79
2024/03/05 08:10:23;;;;;;;5.53;2.53;;;;;;;6.67;100.00;91984.00;4756610;30;20076;-80
2024/03/05 08:12:50;;;;;;;9.57;3.00;;;;;;;6.75;100.00;91985.22;4751516;30;20123;-79
2024/03/05 08:15:16;;;;;;;7.05;3.28;;;;;;;6.80;100.00;91979.19;4752889;30;20044;-80
2024/03/05 08:17:46;;;;;;;6.32;3.65;;;;;;;6.87;100.00;91985.66;4753672;30;20079;-79
2024/03/05 08:20:25;;;;;;;10.43;2.97;;;;;;;6.93;100.00;91978.56;4760038;30;20094;-80
2024/03/05 08:22:51;;;;;;;7.90;4.00;;;;;;;7.02;100.00;91978.72;4753368;30;20044;-79
2024/03/05 08:25:18;;;;;;;8.95;4.00;;;;;;;7.07;100.00;91974.25;4752975;30;20090;-80
2024/03/05 08:27:55;;;;;;;5.72;2.90;;;;;;;7.16;100.00;91971.84;4753391;30;20043;-80
2024/03/05 08:30:29;;;;;;;7.97;2.97;;;;;;;7.29;100.00;91975.56;4765465;30;20052;-79
2024/03/05 08:32:55;;;;;;;7.45;2.30;;;;;;;7.39;100.00;91979.91;4749371;30;20149;-80
2024/03/05 08:35:22;;;;;;;10.27;2.42;;;;;;;7.43;100.00;91966.06;4760476;30;20032;-80
2024/03/05 08:37:49;;;;;;;6.60;2.75;;;;;;;7.58;100.00;91972.91;4751259;30;20067;-79
2024/03/05 08:40:19;;;;;;;6.05;2.55;;;;;;;7.62;100.00;91971.28;4764288;30;20039;-80
2024/03/05 08:42:46;;;;;;;5.40;2.05;;;;;;;7.69;100.00;91969.09;4758782;30;20249;-79
2024/03/05 08:45:14;;;;;;;6.57;2.40;;;;;;;7.83;100.00;91981.44;4759408;30;20036;-79
2024/03/05 08:47:44;;;;;;;3.63;1.95;;;;;;;7.93;100.00;91983.94;4767722;30;20055;-79
2024/03/05 08:50:11;;;;;;;6.10;2.38;;;;;;;7.97;100.00;91981.50;4762679;30;20047;-79
2024/03/05 08:52:37;;;;;;;5.53;2.65;;;;;;;8.02;100.00;91976.25;4770876;30;20059;-79
2024/03/05 08:55:05;;;;;;;4.93;2.13;;;;;;;8.09;100.00;91982.66;4754891;30;20074;-79
2024/03/05 08:57:31;;;;;;;3.95;1.90;;;;;;;8.07;100.00;91974.34;4763472;30;20036;-79
2024/03/05 09:00:01;;;;;;;8.10;2.78;;;;;;;7.97;100.00;91986.72;4756338;30;20549;-79
2024/03/05 09:02:27;;;;;;;3.95;1.85;;;;;;;7.93;100.00;91987.31;4750406;30;20044;-79
2024/03/05 09:04:52;;;;;;;4.32;2.00;;;;;;;7.90;100.00;91989.69;4760432;30;20046;-79
2024/03/05 09:07:18;;;;;;;5.90;1.98;;;;;;;7.93;100.00;91984.69;4764602;30;20527;-80
2024/03/05 09:09:44;;;;;;;6.47;2.05;;;;;;;8.01;100.00;91985.88;4759579;30;20883;-80
2024/03/05 09:12:13;;;;;;;3.80;1.98;;;;;;;8.10;100.00;91981.56;4755472;30;20061;-79
2024/03/05 09:14:42;;;;;;;6.10;2.10;;;;;;;8.18;100.00;91977.56;4747310;30;20161;-78
2024/03/05 09:17:09;;;;;;;4.85;2.00;;;;;;;8.25;100.00;91985.81;4738880;30;20048;-79
2024/03/05 09:19:35;;;;;;;6.28;2.20;;;;;;;8.30;100.00;91987.56;4749033;30;20055;-79
2024/03/05 09:22:04;;;;;;;5.90;2.50;;;;;;;8.37;100.00;91989.81;4740638;30;20050;-79
2024/03/05 09:24:35;;;;;;;5.28;2.40;;;;;;;8.41;100.00;91986.38;4755454;30;20042;-79
2024/03/05 09:27:03;;;;;;;8.02;2.05;;;;;;;8.50;100.00;91992.50;4749697;30;20650;-79
2024/03/05 09:29:29;;;;;;;6.07;2.30;;;;;;;8.58;100.00;91991.09;4757732;30;20031;-79
2024/03/05 09:31:55;;;;;;;5.82;2.17;;;;;;;8.65;100.00;91988.88;4754121;30;20421;-79
2024/03/05 09:34:22;;;;;;;4.78;1.98;;;;;;;8.72;100.00;91985.91;4759686;30;20119;-79
2024/03/05 09:36:49;;;;;;;5.13;2.20;;;;;;;8.75;100.00;91987.94;4759512;30;20083;-79
2024/03/05 09:39:15;;;;;;;7.45;2.45;;;;;;;8.82;100.00;91993.56;4756033;30;20096;-79
2024/03/05 09:41:44;;;;;;;8.40;2.00;;;;;;;8.87;100.00;91992.69;4767618;30;20051;-79
2024/03/05 09:44:10;;;;;;;5.13;2.10;;;;;;;8.92;100.00;91987.41;4760629;30;20093;-78
2024/03/05 09:46:39;;;;;;;8.48;2.17;;;;;;;8.96;100.00;91994.38;4751383;30;20055;-79
2024/03/05 09:49:11;;;;;;;4.93;2.10;;;;;;;9.01;100.00;91995.34;4758425;30;20036;-79
2024/03/05 09:51:39;;;;;;;5.45;2.10;;;;;;;8.93;100.00;91999.38;4747102;30;20595;-79
2024/03/05 09:54:10;;;;;;;4.18;1.90;;;;;;;8.80;100.00;92000.91;4769162;30;20056;-79
2024/03/05 09:56:45;;;;;;;6.47;2.70;;;;;;;8.77;100.00;92006.69;4755832;30;20063;-79
2024/03/05 09:59:12;;;;;;;4.93;2.40;;;;;;;8.60;100.00;92001.22;4742681;30;20493;-78
2024/03/05 10:01:41;;;;;;;4.65;2.40;;;;;;;8.35;100.00;92000.53;4753735;30;20468;-78
2024/03/05 10:04:12;;;;;;;4.28;2.03;;;;;;;8.26;100.00;92002.22;4751096;30;20039;-78
2024/03/05 10:06:38;;;;;;;3.70;1.83;;;;;;;8.37;100.00;91993.19;4746910;30;20525;-77
2024/03/05 10:09:08;;;;;;;11.25;2.58;;;;;;;8.50;100.00;91994.34;4743488;30;20537;-78
2024/03/05 10:11:34;;;;;;;6.75;2.20;;;;;;;8.71;100.00;91992.19;4751525;30;20106;-79
2024/03/05 10:14:08;;;;;;;4.70;2.33;;;;;;;8.74;100.00;91986.41;4751173;30;20029;-79
2024/03/05 10:16:34;;;;;;;7.35;2.17;;;;;;;8.88;100.00;91997.63;4744988;30;20045;-78
2024/03/05 10:19:40;;;;;;;5.97;2.00;;;;;;;8.70;100.00;91995.84;4744245;30;20064;-78
2024/03/05 10:22:11;;;;;;;8.60;2.40;;;;;;;8.41;100.00;91989.00;4737663;30;20048;-78
2024/03/05 10:24:38;;;;;;;6.25;2.15;;;;;;;8.21;100.00;91992.63;4743367;30;20144;-78
2024/03/05 10:27:04;;;;;;;4.82;2.40;;;;;;;8.21;100.00;91994.47;4751587;30;20046;-78
2024/03/05 10:29:35;;;;;;;6.63;2.30;;;;;;;8.02;100.00;91992.66;4750537;30;20044;-78
2024/03/05 10:32:11;;;;;;;5.47;2.53;;;;;;;8.11;100.00;91998.03;4755350;30;20113;-78
2024/03/05 10:34:45;;;;;;;5.00;1.98;;;;;;;8.03;100.00;91991.59;4749541;30;20032;-78
2024/03/05 10:37:11;;;;;;;5.75;1.90;;;;;;;8.14;100.00;91995.59;4749634;30;20105;-78
2024/03/05 10:39:40;;;;;;;5.63;2.20;;;;;;;8.13;100.00;91993.28;4745709;30;20040;-78
2024/03/05 10:42:06;;;;;;;7.57;2.45;;;;;;;8.13;100.00;91996.66;4740958;30;20056;-79
2024/03/05 10:44:35;;;;;;;6.35;1.95;;;;;;;8.17;100.00;91996.09;4753316;30;20048;-79
2024/03/05 10:47:03;;;;;;;6.85;2.10;;;;;;;8.26;100.00;91991.78;4752697;30;20044;-78
2024/03/05 10:49:29;;;;;;;4.38;1.80;;;;;;;8.33;100.00;91998.22;4754561;30;20105;-78
2024/03/05 10:51:58;;;;;;;3.90;1.63;;;;;;;8.30;100.00;91990.94;4747741;30;20064;-78
2024/03/05 10:54:25;;;;;;;4.60;1.80;;;;;;;8.39;100.00;91985.84;4755526;30;20525;-78
2024/03/05 10:56:52;;;;;;;7.30;2.40;;;;;;;8.38;100.00;91994.00;4753018;30;20106;-77
2024/03/05 11:01:45;;;;;;;5.28;1.90;;;;;;;8.33;100.00;91989.59;4744389;30;20055;-77
2024/03/05 11:04:15;;;;;;;5.25;1.80;;;;;;;8.34;100.00;91993.78;4758560;30;20536;-79
2024/03/05 11:06:41;;;;;;;6.13;1.90;;;;;;;8.42;100.00;91995.78;4761751;30;20039;-78
2024/03/05 11:09:10;;;;;;;4.68;1.92;;;;;;;8.53;100.00;91989.34;4750446;30;20032;-78
2024/03/05 11:11:43;;;;;;;3.65;2.00;;;;;;;8.50;100.00;91989.88;4758177;30;20053;-80
2024/03/05 11:14:10;;;;;;;8.70;1.90;;;;;;;8.55;100.00;91995.03;4762306;30;20074;-79
2024/03/05 11:16:36;;;;;;;6.78;2.40;;;;;;;8.59;100.00;91994.47;4753818;30;20051;-78
2024/03/05 11:19:08;;;;;;;5.22;1.85;;;;;;;8.66;100.00;91995.63;4761926;30;20131;-80
2024/03/05 11:21:41;;;;;;;5.25;1.92;;;;;;;8.65;100.00;91980.28;4769538;30;20673;-79
2024/03/05 11:24:07;;;;;;;7.70;2.17;;;;;;;8.58;100.00;91993.69;4762330;30;20111;-79
2024/03/05 11:26:34;;;;;;;4.18;2.10;;;;;;;8.64;100.00;91995.16;4759231;30;20056;-79
2024/03/05 11:29:26;;;;;;;4.15;1.90;;;;;;;8.52;100.00;91990.38;4756231;30;20102;-78
2024/03/05 11:31:53;;;;;;;5.53;1.67;;;;;;;8.45;100.00;92000.41;4741513;30;20044;-80
2024/03/05 11:34:19;;;;;;;7.40;2.15;;;;;;;8.48;100.00;91999.84;4750254;30;20485;-82
2024/03/05 11:37:05;;;;;;;4.38;1.80;;;;;;;8.45;100.00;91995.19;4751298;30;20058;-83
2024/03/05 11:39:30;;;;;;;6.07;2.00;;;;;;;8.51;100.00;92001.09;4763648;30;20065;-81
2024/03/05 11:41:59;;;;;;;4.80;1.80;;;;;;;8.59;100.00;92005.69;4755167;30;20028;-80
2024/03/05 11:44:30;;;;;;;5.07;2.05;;;;;;;8.52;100.00;92011.25;4750136;30;20067;-81